sensor_id;sensor_type;location;lat;lon;timestamp;temperature;humidity
45319;DHT22;31057;48.498;32.260;2023-04-06T00:00:48;11.40;99.90
45319;DHT22;31057;48.498;32.260;2023-04-06T00:02:50;11.40;99.90
45319;DHT22;31057;48.498;32.260;2023-04-06T00:04:53;11.50;99.90
45319;DHT22;31057;48.498;32.260;2023-04-06T00:06:55;11.50;99.90
45319;DHT22;31057;48.498;32.260;2023-04-06T00:08:58;11.40;99.90
45319;DHT22;31057;48.498;32.260;2023-04-06T00:11:00;11.50;99.90
45319;DHT22;31057;48.498;32.260;2023-04-06T00:13:02;11.50;99.90
45319;DHT22;31057;48.498;32.260;2023-04-06T00:15:04;11.50;99.90
45319;DHT22;31057;48.498;32.260;2023-04-06T00:17:07;11.50;99.90
45319;DHT22;31057;48.498;32.260;2023-04-06T00:19:09;11.40;99.90
45319;DHT22;31057;48.498;32.260;2023-04-06T00:21:12;11.40;99.90
45319;DHT22;31057;48.498;32.260;2023-04-06T00:23:15;11.40;99.90
45319;DHT22;31057;48.498;32.260;2023-04-06T00:25:17;11.40;99.90
45319;DHT22;31057;48.498;32.260;2023-04-06T00:27:19;11.40;99.90
45319;DHT22;31057;48.498;32.260;2023-04-06T00:29:21;11.50;99.90
45319;DHT22;31057;48.498;32.260;2023-04-06T00:31:23;11.40;99.90
45319;DHT22;31057;48.498;32.260;2023-04-06T00:33:25;11.40;99.90
45319;DHT22;31057;48.498;32.260;2023-04-06T00:35:27;11.40;99.90
45319;DHT22;31057;48.498;32.260;2023-04-06T00:37:29;11.40;99.90
45319;DHT22;31057;48.498;32.260;2023-04-06T00:39:31;11.40;99.90
45319;DHT22;31057;48.498;32.260;2023-04-06T00:41:33;11.30;99.90
45319;DHT22;31057;48.498;32.260;2023-04-06T00:43:35;11.30;99.90
45319;DHT22;31057;48.498;32.260;2023-04-06T00:45:38;11.20;99.90
45319;DHT22;31057;48.498;32.260;2023-04-06T00:47:41;11.20;99.90
45319;DHT22;31057;48.498;32.260;2023-04-06T00:49:42;11.10;99.90
45319;DHT22;31057;48.498;32.260;2023-04-06T00:51:44;11.10;99.90
45319;DHT22;31057;48.498;32.260;2023-04-06T00:53:46;11.10;99.90
45319;DHT22;31057;48.498;32.260;2023-04-06T00:55:48;11.00;99.90
45319;DHT22;31057;48.498;32.260;2023-04-06T00:57:50;11.00;99.90
45319;DHT22;31057;48.498;32.260;2023-04-06T00:59:53;11.00;99.90
45319;DHT22;31057;48.498;32.260;2023-04-06T01:01:55;10.90;99.90
45319;DHT22;31057;48.498;32.260;2023-04-06T01:03:57;10.90;99.90
45319;DHT22;31057;48.498;32.260;2023-04-06T01:05:59;10.80;99.90
45319;DHT22;31057;48.498;32.260;2023-04-06T01:08:01;10.80;99.90
45319;DHT22;31057;48.498;32.260;2023-04-06T01:10:03;10.70;99.90
45319;DHT22;31057;48.498;32.260;2023-04-06T01:12:06;10.60;99.90
45319;DHT22;31057;48.498;32.260;2023-04-06T01:14:08;10.50;99.90
45319;DHT22;31057;48.498;32.260;2023-04-06T01:16:10;10.50;99.90
45319;DHT22;31057;48.498;32.260;2023-04-06T01:18:12;10.40;99.90
45319;DHT22;31057;48.498;32.260;2023-04-06T01:20:14;10.40;99.90
45319;DHT22;31057;48.498;32.260;2023-04-06T01:22:17;10.20;99.90
45319;DHT22;31057;48.498;32.260;2023-04-06T01:24:19;10.20;99.90
45319;DHT22;31057;48.498;32.260;2023-04-06T01:26:21;10.20;99.90
45319;DHT22;31057;48.498;32.260;2023-04-06T01:28:23;10.20;99.90
45319;DHT22;31057;48.498;32.260;2023-04-06T01:30:25;10.10;99.90
45319;DHT22;31057;48.498;32.260;2023-04-06T01:32:28;10.10;99.90
45319;DHT22;31057;48.498;32.260;2023-04-06T01:34:29;10.00;99.90
45319;DHT22;31057;48.498;32.260;2023-04-06T01:36:33;9.90;99.90
45319;DHT22;31057;48.498;32.260;2023-04-06T01:38:35;9.90;99.90
45319;DHT22;31057;48.498;32.260;2023-04-06T01:40:37;9.90;99.90
45319;DHT22;31057;48.498;32.260;2023-04-06T01:42:38;9.80;99.90
45319;DHT22;31057;48.498;32.260;2023-04-06T01:44:41;9.70;99.90
45319;DHT22;31057;48.498;32.260;2023-04-06T01:46:43;9.70;99.90
45319;DHT22;31057;48.498;32.260;2023-04-06T01:48:45;9.70;99.90
45319;DHT22;31057;48.498;32.260;2023-04-06T01:50:46;9.60;99.90
45319;DHT22;31057;48.498;32.260;2023-04-06T01:52:48;9.60;99.90
45319;DHT22;31057;48.498;32.260;2023-04-06T01:54:51;9.70;99.90
45319;DHT22;31057;48.498;32.260;2023-04-06T01:56:54;9.60;99.90
45319;DHT22;31057;48.498;32.260;2023-04-06T01:58:56;9.60;99.90
45319;DHT22;31057;48.498;32.260;2023-04-06T02:00:58;9.60;99.90
45319;DHT22;31057;48.498;32.260;2023-04-06T02:02:59;9.60;99.90
45319;DHT22;31057;48.498;32.260;2023-04-06T02:05:02;9.60;99.90
45319;DHT22;31057;48.498;32.260;2023-04-06T02:07:04;9.60;99.90
45319;DHT22;31057;48.498;32.260;2023-04-06T02:09:06;9.50;99.90
45319;DHT22;31057;48.498;32.260;2023-04-06T02:11:08;9.50;99.90
45319;DHT22;31057;48.498;32.260;2023-04-06T02:13:10;9.50;99.90
45319;DHT22;31057;48.498;32.260;2023-04-06T02:15:12;9.50;99.90
45319;DHT22;31057;48.498;32.260;2023-04-06T02:17:15;9.40;99.90
45319;DHT22;31057;48.498;32.260;2023-04-06T02:19:17;9.50;99.90
45319;DHT22;31057;48.498;32.260;2023-04-06T02:21:18;9.40;99.90
45319;DHT22;31057;48.498;32.260;2023-04-06T02:23:22;9.40;99.90
45319;DHT22;31057;48.498;32.260;2023-04-06T02:25:24;9.40;99.90
45319;DHT22;31057;48.498;32.260;2023-04-06T02:27:25;9.40;99.90
45319;DHT22;31057;48.498;32.260;2023-04-06T02:29:27;9.30;99.90
45319;DHT22;31057;48.498;32.260;2023-04-06T02:31:30;9.30;99.90
45319;DHT22;31057;48.498;32.260;2023-04-06T02:33:32;9.20;99.90
45319;DHT22;31057;48.498;32.260;2023-04-06T02:35:34;9.20;99.90
45319;DHT22;31057;48.498;32.260;2023-04-06T02:37:36;9.20;99.90
45319;DHT22;31057;48.498;32.260;2023-04-06T02:39:38;9.20;99.90
45319;DHT22;31057;48.498;32.260;2023-04-06T02:41:41;9.10;99.90
45319;DHT22;31057;48.498;32.260;2023-04-06T02:43:42;9.10;99.90
45319;DHT22;31057;48.498;32.260;2023-04-06T02:45:44;9.10;99.90
45319;DHT22;31057;48.498;32.260;2023-04-06T02:47:47;9.10;99.90
45319;DHT22;31057;48.498;32.260;2023-04-06T02:49:49;9.10;99.90
45319;DHT22;31057;48.498;32.260;2023-04-06T02:51:51;9.20;99.90
45319;DHT22;31057;48.498;32.260;2023-04-06T02:53:53;9.20;99.90
45319;DHT22;31057;48.498;32.260;2023-04-06T02:55:55;9.10;99.90
45319;DHT22;31057;48.498;32.260;2023-04-06T02:57:57;9.20;99.90
45319;DHT22;31057;48.498;32.260;2023-04-06T02:59:59;9.20;99.90
45319;DHT22;31057;48.498;32.260;2023-04-06T03:02:01;9.10;99.90
45319;DHT22;31057;48.498;32.260;2023-04-06T03:04:03;9.10;99.90
45319;DHT22;31057;48.498;32.260;2023-04-06T03:06:05;9.10;99.90
45319;DHT22;31057;48.498;32.260;2023-04-06T03:08:07;9.20;99.90
45319;DHT22;31057;48.498;32.260;2023-04-06T03:10:09;9.10;99.90
45319;DHT22;31057;48.498;32.260;2023-04-06T03:12:11;9.10;99.90
45319;DHT22;31057;48.498;32.260;2023-04-06T03:14:13;9.20;99.90
45319;DHT22;31057;48.498;32.260;2023-04-06T03:16:15;9.10;99.90
45319;DHT22;31057;48.498;32.260;2023-04-06T03:18:26;9.20;99.90
45319;DHT22;31057;48.498;32.260;2023-04-06T03:20:28;9.20;99.90
45319;DHT22;31057;48.498;32.260;2023-04-06T03:22:30;9.20;99.90
45319;DHT22;31057;48.498;32.260;2023-04-06T03:24:32;9.20;99.90
45319;DHT22;31057;48.498;32.260;2023-04-06T03:26:34;9.10;99.90
45319;DHT22;31057;48.498;32.260;2023-04-06T03:28:36;9.20;99.90
45319;DHT22;31057;48.498;32.260;2023-04-06T03:30:38;9.20;99.90
45319;DHT22;31057;48.498;32.260;2023-04-06T03:32:40;9.20;99.90
45319;DHT22;31057;48.498;32.260;2023-04-06T03:34:42;9.20;99.90
45319;DHT22;31057;48.498;32.260;2023-04-06T03:36:44;9.20;99.90
45319;DHT22;31057;48.498;32.260;2023-04-06T03:38:48;9.20;99.90
45319;DHT22;31057;48.498;32.260;2023-04-06T03:40:50;9.20;99.90
45319;DHT22;31057;48.498;32.260;2023-04-06T03:42:52;9.20;99.90
45319;DHT22;31057;48.498;32.260;2023-04-06T03:44:54;9.20;99.90
45319;DHT22;31057;48.498;32.260;2023-04-06T03:46:56;9.20;99.90
45319;DHT22;31057;48.498;32.260;2023-04-06T03:48:58;9.20;99.90
45319;DHT22;31057;48.498;32.260;2023-04-06T03:51:00;9.10;99.90
45319;DHT22;31057;48.498;32.260;2023-04-06T03:53:02;8.90;99.90
45319;DHT22;31057;48.498;32.260;2023-04-06T03:55:05;8.90;99.90
45319;DHT22;31057;48.498;32.260;2023-04-06T03:57:07;8.90;99.90
45319;DHT22;31057;48.498;32.260;2023-04-06T03:59:09;8.80;99.90
45319;DHT22;31057;48.498;32.260;2023-04-06T04:01:11;8.80;99.90
45319;DHT22;31057;48.498;32.260;2023-04-06T04:03:13;8.70;99.90
45319;DHT22;31057;48.498;32.260;2023-04-06T04:05:16;8.80;99.90
45319;DHT22;31057;48.498;32.260;2023-04-06T04:07:18;8.70;99.90
45319;DHT22;31057;48.498;32.260;2023-04-06T04:09:20;8.80;99.90
45319;DHT22;31057;48.498;32.260;2023-04-06T04:11:22;8.60;99.90
45319;DHT22;31057;48.498;32.260;2023-04-06T04:13:24;8.70;99.90
45319;DHT22;31057;48.498;32.260;2023-04-06T04:15:26;8.70;99.90
45319;DHT22;31057;48.498;32.260;2023-04-06T04:17:28;8.60;99.90
45319;DHT22;31057;48.498;32.260;2023-04-06T04:19:30;8.60;99.90
45319;DHT22;31057;48.498;32.260;2023-04-06T04:21:32;8.60;99.90
45319;DHT22;31057;48.498;32.260;2023-04-06T04:23:34;8.60;99.90
45319;DHT22;31057;48.498;32.260;2023-04-06T04:25:38;8.60;99.90
45319;DHT22;31057;48.498;32.260;2023-04-06T04:27:40;8.60;99.90
45319;DHT22;31057;48.498;32.260;2023-04-06T04:29:42;8.60;99.90
45319;DHT22;31057;48.498;32.260;2023-04-06T04:31:45;8.50;99.90
45319;DHT22;31057;48.498;32.260;2023-04-06T04:33:47;8.60;99.90
45319;DHT22;31057;48.498;32.260;2023-04-06T04:35:49;8.50;99.90
45319;DHT22;31057;48.498;32.260;2023-04-06T04:37:51;8.50;99.90
45319;DHT22;31057;48.498;32.260;2023-04-06T04:39:53;8.50;99.90
45319;DHT22;31057;48.498;32.260;2023-04-06T04:41:55;8.50;99.90
45319;DHT22;31057;48.498;32.260;2023-04-06T04:43:57;8.60;99.90
45319;DHT22;31057;48.498;32.260;2023-04-06T04:45:59;8.60;99.90
45319;DHT22;31057;48.498;32.260;2023-04-06T04:48:01;8.70;99.90
45319;DHT22;31057;48.498;32.260;2023-04-06T04:50:03;8.60;99.90
45319;DHT22;31057;48.498;32.260;2023-04-06T04:52:05;8.60;99.90
45319;DHT22;31057;48.498;32.260;2023-04-06T04:54:07;8.50;99.90
45319;DHT22;31057;48.498;32.260;2023-04-06T04:56:09;8.50;99.90
45319;DHT22;31057;48.498;32.260;2023-04-06T04:58:11;8.40;99.90
45319;DHT22;31057;48.498;32.260;2023-04-06T05:00:19;8.50;99.90
45319;DHT22;31057;48.498;32.260;2023-04-06T05:02:21;8.50;99.90
45319;DHT22;31057;48.498;32.260;2023-04-06T05:04:23;8.40;99.90
45319;DHT22;31057;48.498;32.260;2023-04-06T05:06:25;8.50;99.90
45319;DHT22;31057;48.498;32.260;2023-04-06T05:08:28;8.60;99.90
45319;DHT22;31057;48.498;32.260;2023-04-06T05:10:29;8.60;99.90
45319;DHT22;31057;48.498;32.260;2023-04-06T05:12:32;8.60;99.90
45319;DHT22;31057;48.498;32.260;2023-04-06T05:14:33;8.50;99.90
45319;DHT22;31057;48.498;32.260;2023-04-06T05:16:35;8.40;99.90
45319;DHT22;31057;48.498;32.260;2023-04-06T05:18:37;8.40;99.90
45319;DHT22;31057;48.498;32.260;2023-04-06T05:20:39;8.50;99.90
45319;DHT22;31057;48.498;32.260;2023-04-06T05:22:42;8.40;99.90
45319;DHT22;31057;48.498;32.260;2023-04-06T05:24:44;8.50;99.90
45319;DHT22;31057;48.498;32.260;2023-04-06T05:26:45;8.40;99.90
45319;DHT22;31057;48.498;32.260;2023-04-06T05:28:48;8.50;99.90
45319;DHT22;31057;48.498;32.260;2023-04-06T05:30:50;8.50;99.90
45319;DHT22;31057;48.498;32.260;2023-04-06T05:32:52;8.40;99.90
45319;DHT22;31057;48.498;32.260;2023-04-06T05:34:54;8.30;99.90
45319;DHT22;31057;48.498;32.260;2023-04-06T05:36:56;8.30;99.90
45319;DHT22;31057;48.498;32.260;2023-04-06T05:38:58;8.30;99.90
45319;DHT22;31057;48.498;32.260;2023-04-06T05:41:00;8.30;99.90
45319;DHT22;31057;48.498;32.260;2023-04-06T05:43:02;8.30;99.90
45319;DHT22;31057;48.498;32.260;2023-04-06T05:45:05;8.40;99.90
45319;DHT22;31057;48.498;32.260;2023-04-06T05:47:08;8.50;99.90
45319;DHT22;31057;48.498;32.260;2023-04-06T05:49:10;8.40;99.90
45319;DHT22;31057;48.498;32.260;2023-04-06T05:51:12;8.40;99.90
45319;DHT22;31057;48.498;32.260;2023-04-06T05:53:14;8.40;99.90
45319;DHT22;31057;48.498;32.260;2023-04-06T05:55:16;8.40;99.90
45319;DHT22;31057;48.498;32.260;2023-04-06T05:57:18;8.40;99.90
45319;DHT22;31057;48.498;32.260;2023-04-06T05:59:20;8.40;99.90
45319;DHT22;31057;48.498;32.260;2023-04-06T06:01:22;8.40;99.90
45319;DHT22;31057;48.498;32.260;2023-04-06T06:03:24;8.40;99.90
45319;DHT22;31057;48.498;32.260;2023-04-06T06:05:26;8.40;99.90
45319;DHT22;31057;48.498;32.260;2023-04-06T06:07:28;8.30;99.90
45319;DHT22;31057;48.498;32.260;2023-04-06T06:09:30;8.30;99.90
45319;DHT22;31057;48.498;32.260;2023-04-06T06:11:32;8.30;99.90
45319;DHT22;31057;48.498;32.260;2023-04-06T06:13:34;8.50;99.90
45319;DHT22;31057;48.498;32.260;2023-04-06T06:15:36;8.50;99.90
45319;DHT22;31057;48.498;32.260;2023-04-06T06:17:38;8.50;99.90
45319;DHT22;31057;48.498;32.260;2023-04-06T06:19:40;8.60;99.90
45319;DHT22;31057;48.498;32.260;2023-04-06T06:21:42;8.50;99.90
45319;DHT22;31057;48.498;32.260;2023-04-06T06:23:44;8.50;99.90
45319;DHT22;31057;48.498;32.260;2023-04-06T06:25:46;8.50;99.90
45319;DHT22;31057;48.498;32.260;2023-04-06T06:27:48;8.30;99.90
45319;DHT22;31057;48.498;32.260;2023-04-06T06:29:50;8.50;99.90
45319;DHT22;31057;48.498;32.260;2023-04-06T06:31:52;8.40;99.90
45319;DHT22;31057;48.498;32.260;2023-04-06T06:33:54;8.40;99.90
45319;DHT22;31057;48.498;32.260;2023-04-06T06:35:56;8.50;99.90
45319;DHT22;31057;48.498;32.260;2023-04-06T06:37:58;8.40;99.90
45319;DHT22;31057;48.498;32.260;2023-04-06T06:40:00;8.40;99.90
45319;DHT22;31057;48.498;32.260;2023-04-06T06:42:02;8.40;99.90
45319;DHT22;31057;48.498;32.260;2023-04-06T06:44:03;8.40;99.90
45319;DHT22;31057;48.498;32.260;2023-04-06T06:46:05;8.30;99.90
45319;DHT22;31057;48.498;32.260;2023-04-06T06:48:07;8.40;99.90
45319;DHT22;31057;48.498;32.260;2023-04-06T06:50:10;8.40;99.90
45319;DHT22;31057;48.498;32.260;2023-04-06T06:52:12;8.50;99.90
45319;DHT22;31057;48.498;32.260;2023-04-06T06:54:14;8.70;99.90
45319;DHT22;31057;48.498;32.260;2023-04-06T06:56:15;8.60;99.90
45319;DHT22;31057;48.498;32.260;2023-04-06T06:58:18;8.70;99.90
45319;DHT22;31057;48.498;32.260;2023-04-06T07:00:21;8.80;99.90
45319;DHT22;31057;48.498;32.260;2023-04-06T07:02:23;8.80;99.90
45319;DHT22;31057;48.498;32.260;2023-04-06T07:04:25;8.50;99.90
45319;DHT22;31057;48.498;32.260;2023-04-06T07:06:29;8.50;99.90
45319;DHT22;31057;48.498;32.260;2023-04-06T07:08:31;8.50;99.90
45319;DHT22;31057;48.498;32.260;2023-04-06T07:10:34;8.50;99.90
45319;DHT22;31057;48.498;32.260;2023-04-06T07:12:36;8.60;99.90
45319;DHT22;31057;48.498;32.260;2023-04-06T07:14:38;8.80;99.90
45319;DHT22;31057;48.498;32.260;2023-04-06T07:16:40;9.00;99.90
45319;DHT22;31057;48.498;32.260;2023-04-06T07:18:42;9.00;99.90
45319;DHT22;31057;48.498;32.260;2023-04-06T07:20:45;9.00;99.90
45319;DHT22;31057;48.498;32.260;2023-04-06T07:22:47;9.00;99.90
45319;DHT22;31057;48.498;32.260;2023-04-06T07:24:49;9.10;99.90
45319;DHT22;31057;48.498;32.260;2023-04-06T07:26:51;8.90;99.90
45319;DHT22;31057;48.498;32.260;2023-04-06T07:28:53;8.80;99.90
45319;DHT22;31057;48.498;32.260;2023-04-06T07:30:55;8.90;99.90
45319;DHT22;31057;48.498;32.260;2023-04-06T07:32:57;9.00;99.90
45319;DHT22;31057;48.498;32.260;2023-04-06T07:35:01;9.10;99.90
45319;DHT22;31057;48.498;32.260;2023-04-06T07:37:03;9.20;99.90
45319;DHT22;31057;48.498;32.260;2023-04-06T07:39:06;9.30;99.90
45319;DHT22;31057;48.498;32.260;2023-04-06T07:41:08;9.50;99.90
45319;DHT22;31057;48.498;32.260;2023-04-06T07:43:10;9.80;99.90
45319;DHT22;31057;48.498;32.260;2023-04-06T07:45:12;10.00;99.90
45319;DHT22;31057;48.498;32.260;2023-04-06T07:47:14;9.70;99.90
45319;DHT22;31057;48.498;32.260;2023-04-06T07:49:16;9.70;99.90
45319;DHT22;31057;48.498;32.260;2023-04-06T07:51:18;10.10;99.90
45319;DHT22;31057;48.498;32.260;2023-04-06T07:53:21;9.90;99.90
45319;DHT22;31057;48.498;32.260;2023-04-06T07:55:23;10.00;99.90
45319;DHT22;31057;48.498;32.260;2023-04-06T07:57:25;9.80;99.90
45319;DHT22;31057;48.498;32.260;2023-04-06T07:59:27;9.60;99.90
45319;DHT22;31057;48.498;32.260;2023-04-06T08:01:29;9.60;99.90
45319;DHT22;31057;48.498;32.260;2023-04-06T08:03:34;9.70;99.90
45319;DHT22;31057;48.498;32.260;2023-04-06T08:05:36;9.80;99.90
45319;DHT22;31057;48.498;32.260;2023-04-06T08:07:38;9.80;99.90
45319;DHT22;31057;48.498;32.260;2023-04-06T08:09:40;9.70;99.90
45319;DHT22;31057;48.498;32.260;2023-04-06T08:11:42;9.80;99.90
45319;DHT22;31057;48.498;32.260;2023-04-06T08:13:45;10.10;99.90
45319;DHT22;31057;48.498;32.260;2023-04-06T08:15:47;10.40;99.90
45319;DHT22;31057;48.498;32.260;2023-04-06T08:17:49;10.40;99.90
45319;DHT22;31057;48.498;32.260;2023-04-06T08:19:51;10.20;99.90
45319;DHT22;31057;48.498;32.260;2023-04-06T08:21:53;9.90;99.90
45319;DHT22;31057;48.498;32.260;2023-04-06T08:23:56;10.00;99.90
45319;DHT22;31057;48.498;32.260;2023-04-06T08:25:57;10.10;99.90
45319;DHT22;31057;48.498;32.260;2023-04-06T08:27:59;10.30;99.90
45319;DHT22;31057;48.498;32.260;2023-04-06T08:30:01;10.50;99.90
45319;DHT22;31057;48.498;32.260;2023-04-06T08:32:03;10.60;99.90
45319;DHT22;31057;48.498;32.260;2023-04-06T08:34:06;10.60;99.90
45319;DHT22;31057;48.498;32.260;2023-04-06T08:36:13;10.40;99.90
45319;DHT22;31057;48.498;32.260;2023-04-06T08:38:16;10.40;99.90
45319;DHT22;31057;48.498;32.260;2023-04-06T08:40:18;10.40;99.90
45319;DHT22;31057;48.498;32.260;2023-04-06T08:42:20;10.30;99.90
45319;DHT22;31057;48.498;32.260;2023-04-06T08:44:22;10.10;99.90
45319;DHT22;31057;48.498;32.260;2023-04-06T08:46:25;10.00;99.90
45319;DHT22;31057;48.498;32.260;2023-04-06T08:48:32;10.10;99.90
45319;DHT22;31057;48.498;32.260;2023-04-06T08:50:35;9.90;99.90
45319;DHT22;31057;48.498;32.260;2023-04-06T08:52:38;9.80;99.90
45319;DHT22;31057;48.498;32.260;2023-04-06T08:54:40;9.90;99.90
45319;DHT22;31057;48.498;32.260;2023-04-06T08:56:42;10.20;99.90
45319;DHT22;31057;48.498;32.260;2023-04-06T08:58:45;10.10;99.90
45319;DHT22;31057;48.498;32.260;2023-04-06T09:00:47;10.10;99.90
45319;DHT22;31057;48.498;32.260;2023-04-06T09:02:49;9.90;99.90
45319;DHT22;31057;48.498;32.260;2023-04-06T09:04:52;10.20;99.90
45319;DHT22;31057;48.498;32.260;2023-04-06T09:06:54;10.20;99.90
45319;DHT22;31057;48.498;32.260;2023-04-06T09:08:56;9.90;99.90
45319;DHT22;31057;48.498;32.260;2023-04-06T09:11:03;10.10;99.90
45319;DHT22;31057;48.498;32.260;2023-04-06T09:13:06;9.80;99.90
45319;DHT22;31057;48.498;32.260;2023-04-06T09:15:20;10.00;99.90
45319;DHT22;31057;48.498;32.260;2023-04-06T09:17:32;9.90;99.90
45319;DHT22;31057;48.498;32.260;2023-04-06T09:19:46;10.10;99.90
45319;DHT22;31057;48.498;32.260;2023-04-06T09:21:48;10.20;99.90
45319;DHT22;31057;48.498;32.260;2023-04-06T09:24:01;10.10;99.90
45319;DHT22;31057;48.498;32.260;2023-04-06T09:26:15;10.00;99.90
45319;DHT22;31057;48.498;32.260;2023-04-06T09:28:17;10.00;99.90
45319;DHT22;31057;48.498;32.260;2023-04-06T09:30:19;10.00;99.90
45319;DHT22;31057;48.498;32.260;2023-04-06T09:32:21;9.70;99.90
45319;DHT22;31057;48.498;32.260;2023-04-06T09:34:24;9.70;99.90
45319;DHT22;31057;48.498;32.260;2023-04-06T09:38:33;9.60;99.90
45319;DHT22;31057;48.498;32.260;2023-04-06T09:40:35;9.50;99.90
45319;DHT22;31057;48.498;32.260;2023-04-06T09:42:37;9.50;99.90
45319;DHT22;31057;48.498;32.260;2023-04-06T09:44:42;9.50;99.90
45319;DHT22;31057;48.498;32.260;2023-04-06T09:46:45;9.40;99.90
45319;DHT22;31057;48.498;32.260;2023-04-06T09:49:05;9.30;99.90
45319;DHT22;31057;48.498;32.260;2023-04-06T09:51:09;9.20;99.90
45319;DHT22;31057;48.498;32.260;2023-04-06T09:53:13;9.30;99.90
45319;DHT22;31057;48.498;32.260;2023-04-06T09:55:42;9.30;99.90
45319;DHT22;31057;48.498;32.260;2023-04-06T09:57:53;9.20;99.90
45319;DHT22;31057;48.498;32.260;2023-04-06T10:00:08;9.30;99.90
45319;DHT22;31057;48.498;32.260;2023-04-06T10:04:40;9.30;99.90
45319;DHT22;31057;48.498;32.260;2023-04-06T10:06:45;9.20;99.90
45319;DHT22;31057;48.498;32.260;2023-04-06T10:08:50;9.10;99.90
45319;DHT22;31057;48.498;32.260;2023-04-06T10:10:54;9.00;99.90
45319;DHT22;31057;48.498;32.260;2023-04-06T10:12:57;9.10;99.90
45319;DHT22;31057;48.498;32.260;2023-04-06T10:14:59;9.20;99.90
45319;DHT22;31057;48.498;32.260;2023-04-06T10:17:02;9.20;99.90
45319;DHT22;31057;48.498;32.260;2023-04-06T10:19:28;9.20;99.90
45319;DHT22;31057;48.498;32.260;2023-04-06T10:21:32;9.10;99.90
45319;DHT22;31057;48.498;32.260;2023-04-06T10:23:58;9.40;99.90
45319;DHT22;31057;48.498;32.260;2023-04-06T10:26:01;9.40;99.90
45319;DHT22;31057;48.498;32.260;2023-04-06T10:28:08;9.30;99.90
45319;DHT22;31057;48.498;32.260;2023-04-06T10:30:10;9.60;99.90
45319;DHT22;31057;48.498;32.260;2023-04-06T10:32:12;10.10;99.90
45319;DHT22;31057;48.498;32.260;2023-04-06T10:34:14;10.10;99.90
45319;DHT22;31057;48.498;32.260;2023-04-06T10:36:25;10.20;99.90
45319;DHT22;31057;48.498;32.260;2023-04-06T10:38:35;9.90;99.90
45319;DHT22;31057;48.498;32.260;2023-04-06T10:40:42;9.70;99.90
45319;DHT22;31057;48.498;32.260;2023-04-06T10:42:54;9.40;99.90
45319;DHT22;31057;48.498;32.260;2023-04-06T10:44:56;9.50;99.90
45319;DHT22;31057;48.498;32.260;2023-04-06T10:46:59;9.40;99.90
45319;DHT22;31057;48.498;32.260;2023-04-06T10:49:12;9.20;99.90
45319;DHT22;31057;48.498;32.260;2023-04-06T10:51:15;9.20;99.90
45319;DHT22;31057;48.498;32.260;2023-04-06T10:53:27;9.30;99.90
45319;DHT22;31057;48.498;32.260;2023-04-06T10:55:29;9.50;99.90
45319;DHT22;31057;48.498;32.260;2023-04-06T10:57:32;9.50;99.90
45319;DHT22;31057;48.498;32.260;2023-04-06T10:59:34;9.40;99.90
45319;DHT22;31057;48.498;32.260;2023-04-06T11:01:36;9.40;99.90
45319;DHT22;31057;48.498;32.260;2023-04-06T11:03:46;9.20;99.90
45319;DHT22;31057;48.498;32.260;2023-04-06T11:05:50;9.00;99.90
45319;DHT22;31057;48.498;32.260;2023-04-06T11:07:54;9.00;99.90
45319;DHT22;31057;48.498;32.260;2023-04-06T11:09:57;8.90;99.90
45319;DHT22;31057;48.498;32.260;2023-04-06T11:12:26;8.80;99.90
45319;DHT22;31057;48.498;32.260;2023-04-06T11:14:28;8.90;99.90
45319;DHT22;31057;48.498;32.260;2023-04-06T11:16:32;8.80;99.90
45319;DHT22;31057;48.498;32.260;2023-04-06T11:18:34;8.80;99.90
45319;DHT22;31057;48.498;32.260;2023-04-06T11:20:37;8.80;99.90
45319;DHT22;31057;48.498;32.260;2023-04-06T11:22:49;8.70;99.90
45319;DHT22;31057;48.498;32.260;2023-04-06T11:24:51;8.70;99.90
45319;DHT22;31057;48.498;32.260;2023-04-06T11:26:57;8.80;99.90
45319;DHT22;31057;48.498;32.260;2023-04-06T11:29:00;9.10;99.90
45319;DHT22;31057;48.498;32.260;2023-04-06T11:31:02;9.00;99.90
45319;DHT22;31057;48.498;32.260;2023-04-06T11:33:04;9.00;99.90
45319;DHT22;31057;48.498;32.260;2023-04-06T11:35:07;9.10;99.90
45319;DHT22;31057;48.498;32.260;2023-04-06T11:37:11;8.90;99.90
45319;DHT22;31057;48.498;32.260;2023-04-06T11:39:18;8.90;99.90
45319;DHT22;31057;48.498;32.260;2023-04-06T11:41:23;8.90;99.90
45319;DHT22;31057;48.498;32.260;2023-04-06T11:43:31;8.90;99.90
45319;DHT22;31057;48.498;32.260;2023-04-06T11:45:43;9.00;99.90
45319;DHT22;31057;48.498;32.260;2023-04-06T11:47:45;9.00;99.90
45319;DHT22;31057;48.498;32.260;2023-04-06T11:49:47;8.90;99.90
45319;DHT22;31057;48.498;32.260;2023-04-06T11:51:49;8.80;99.90
45319;DHT22;31057;48.498;32.260;2023-04-06T11:53:51;8.80;99.90
45319;DHT22;31057;48.498;32.260;2023-04-06T11:55:53;8.70;99.90
45319;DHT22;31057;48.498;32.260;2023-04-06T11:57:55;8.70;99.90
45319;DHT22;31057;48.498;32.260;2023-04-06T11:59:57;8.70;99.90
45319;DHT22;31057;48.498;32.260;2023-04-06T12:01:59;8.70;99.90
45319;DHT22;31057;48.498;32.260;2023-04-06T12:04:01;8.60;99.90
45319;DHT22;31057;48.498;32.260;2023-04-06T12:06:04;8.40;99.90
45319;DHT22;31057;48.498;32.260;2023-04-06T12:08:06;8.40;99.90
45319;DHT22;31057;48.498;32.260;2023-04-06T12:10:09;8.40;99.90
45319;DHT22;31057;48.498;32.260;2023-04-06T12:12:11;8.30;99.90
45319;DHT22;31057;48.498;32.260;2023-04-06T12:14:13;8.40;99.90
45319;DHT22;31057;48.498;32.260;2023-04-06T12:16:15;8.30;99.90
45319;DHT22;31057;48.498;32.260;2023-04-06T12:18:17;8.40;99.90
45319;DHT22;31057;48.498;32.260;2023-04-06T12:20:19;8.50;99.90
45319;DHT22;31057;48.498;32.260;2023-04-06T12:22:27;8.50;99.90
45319;DHT22;31057;48.498;32.260;2023-04-06T12:24:29;8.40;99.90
45319;DHT22;31057;48.498;32.260;2023-04-06T12:26:31;8.30;99.90
45319;DHT22;31057;48.498;32.260;2023-04-06T12:28:33;8.20;99.90
45319;DHT22;31057;48.498;32.260;2023-04-06T12:30:35;8.20;99.90
45319;DHT22;31057;48.498;32.260;2023-04-06T12:32:37;8.20;99.90
45319;DHT22;31057;48.498;32.260;2023-04-06T12:34:39;8.10;99.90
45319;DHT22;31057;48.498;32.260;2023-04-06T12:36:41;7.90;99.90
45319;DHT22;31057;48.498;32.260;2023-04-06T12:38:43;8.00;99.90
45319;DHT22;31057;48.498;32.260;2023-04-06T12:40:47;8.00;99.90
45319;DHT22;31057;48.498;32.260;2023-04-06T12:42:52;8.00;99.90
45319;DHT22;31057;48.498;32.260;2023-04-06T12:44:54;8.00;99.90
45319;DHT22;31057;48.498;32.260;2023-04-06T12:46:56;8.00;99.90
45319;DHT22;31057;48.498;32.260;2023-04-06T12:48:58;8.10;99.90
45319;DHT22;31057;48.498;32.260;2023-04-06T12:51:02;7.90;99.90
45319;DHT22;31057;48.498;32.260;2023-04-06T12:53:04;7.60;99.90
45319;DHT22;31057;48.498;32.260;2023-04-06T12:55:07;7.50;99.90
45319;DHT22;31057;48.498;32.260;2023-04-06T12:57:09;7.40;99.90
45319;DHT22;31057;48.498;32.260;2023-04-06T12:59:11;7.40;99.90